Time;durP1;ratioP1;P1;durP2;ratioP2;P2;SDS_P1;SDS_P2;PMS_P1;PMS_P2;Temp;Humidity;BMP_temperature;BMP_pressure;BME280_temperature;BME280_humidity;BME280_pressure;Samples;Min_cycle;Max_cycle;Signal;HPM_P1;HPM_P2
2023/04/12 00:01:35;;;;;;;;;;;;;;;21.23;48.12;100725.38;4965565;28;3084;-67
2023/04/12 00:04:03;;;;;;;;;;;;;;;21.23;47.83;100725.38;4960545;28;2833;-67
2023/04/12 00:06:33;;;;;;;;;;;;;;;21.21;47.72;100728.19;4964590;28;2761;-67
2023/04/12 00:09:00;;;;;;;;;;;;;;;21.21;47.90;100728.19;4950676;28;2843;-68
2023/04/12 00:11:27;;;;;;;;;;;;;;;21.19;47.90;100724.47;4964042;28;2922;-67
2023/04/12 00:13:53;;;;;;;;;;;;;;;21.19;48.08;100728.09;4961817;28;2797;-67
2023/04/12 00:16:20;;;;;;;;;;;;;;;21.18;48.02;100723.72;4963220;28;2712;-67
2023/04/12 00:18:47;;;;;;;;;;;;;;;21.17;47.95;100727.28;4963118;28;3222;-67
2023/04/12 00:21:18;;;;;;;;;;;;;;;21.16;47.86;100723.66;4959984;28;2832;-67
2023/04/12 00:23:44;;;;;;;;;;;;;;;21.15;48.09;100719.28;4964972;28;2876;-67
2023/04/12 00:26:11;;;;;;;;;;;;;;;21.15;48.01;100715.69;4964014;28;3092;-67
2023/04/12 00:28:38;;;;;;;;;;;;;;;21.13;47.89;100713.44;4944058;28;2876;-67
2023/04/12 00:31:05;;;;;;;;;;;;;;;21.11;47.97;100722.00;4961371;28;2947;-67
2023/04/12 00:33:32;;;;;;;;;;;;;;;21.11;47.87;100716.25;4954385;28;2922;-67
2023/04/12 00:35:58;;;;;;;;;;;;;;;21.10;48.04;100706.13;4940643;28;2805;-67
2023/04/12 00:38:25;;;;;;;;;;;;;;;21.08;48.20;100709.66;4936813;28;2926;-67
2023/04/12 00:40:51;;;;;;;;;;;;;;;21.08;47.83;100711.81;4949167;28;2851;-67
2023/04/12 00:43:18;;;;;;;;;;;;;;;21.06;47.95;100715.34;4957855;28;2825;-67
2023/04/12 00:45:47;;;;;;;;;;;;;;;21.06;48.07;100717.47;4961411;28;2332;-67
2023/04/12 00:48:14;;;;;;;;;;;;;;;21.04;47.91;100703.75;4959219;28;2909;-67
2023/04/12 00:50:43;;;;;;;;;;;;;;;21.01;47.95;100704.31;4962294;28;2903;-67
2023/04/12 00:53:12;;;;;;;;;;;;;;;21.00;48.13;100708.59;4962464;28;2801;-67
2023/04/12 00:55:44;;;;;;;;;;;;;;;21.00;48.14;100697.81;4958011;28;2548;-67
2023/04/12 00:58:12;;;;;;;;;;;;;;;21.02;48.04;100700.03;4958597;28;2760;-67
2023/04/12 01:00:39;;;;;;;;;;;;;;;21.00;48.14;100697.06;4957566;28;2757;-66
2023/04/12 01:03:07;;;;;;;;;;;;;;;20.98;47.88;100694.09;4939138;28;2776;-67
2023/04/12 01:05:35;;;;;;;;;;;;;;;21.01;47.79;100687.06;4963371;28;2758;-67
2023/04/12 01:08:10;;;;;;;;;;;;;;;21.02;47.94;100682.75;4961780;28;2907;-67
2023/04/12 01:10:59;;;;;;;;;;;;;;;21.05;48.11;100676.44;4938090;28;2841;-67
2023/04/12 01:13:27;;;;;;;;;;;;;;;21.06;47.96;100677.19;4959278;28;2873;-66
2023/04/12 01:16:21;;;;;;;;;;;;;;;21.15;47.78;100681.13;4947326;28;3148;-67
2023/04/12 01:18:50;;;;;;;;;;;;;;;21.16;48.23;100673.97;4916553;28;2572;-67
2023/04/12 01:21:45;;;;;;;;;;;;;;;21.16;48.35;100680.44;4956322;28;2737;-67
2023/04/12 01:24:19;;;;;;;;;;;;;;;21.16;48.38;100680.44;4890044;28;2918;-67
2023/04/12 01:26:46;;;;;;;;;;;;;;;21.17;48.31;100684.84;4925265;28;2974;-66
2023/04/12 01:29:14;;;;;;;;;;;;;;;21.16;48.23;100674.69;4950926;28;2758;-67
2023/04/12 01:31:43;;;;;;;;;;;;;;;21.16;48.24;100668.94;4960733;28;2277;-67
2023/04/12 01:34:10;;;;;;;;;;;;;;;21.16;48.39;100671.09;4961460;28;3043;-67
2023/04/12 01:36:37;;;;;;;;;;;;;;;21.14;48.24;100668.84;4957914;28;2816;-67
2023/04/12 01:39:03;;;;;;;;;;;;;;;21.14;48.28;100665.97;4961142;28;2764;-67
2023/04/12 01:41:31;;;;;;;;;;;;;;;21.13;48.44;100661.63;4961430;28;2774;-67
2023/04/12 01:43:57;;;;;;;;;;;;;;;21.11;48.27;100656.53;4957818;28;2725;-67
2023/04/12 01:46:24;;;;;;;;;;;;;;;21.11;48.30;100655.78;4962102;28;2999;-67
2023/04/12 01:48:51;;;;;;;;;;;;;;;21.11;48.45;100652.91;4962542;28;2984;-67
2023/04/12 02:03:19;;;;;;;;;;;;;;;21.03;48.13;100650.44;4949259;28;2689;-67
2023/04/12 02:05:45;;;;;;;;;;;;;;;21.00;48.17;100651.75;4937430;28;3114;-67
2023/04/12 02:08:12;;;;;;;;;;;;;;;21.00;48.10;100648.88;4955080;28;2580;-66
2023/04/12 02:10:39;;;;;;;;;;;;;;;21.00;48.14;100645.25;4956958;28;2958;-67
2023/04/12 02:13:05;;;;;;;;;;;;;;;20.99;48.17;100638.03;4962558;28;2825;-67
2023/04/12 02:15:32;;;;;;;;;;;;;;;20.98;48.06;100642.28;4956315;28;3107;-67
2023/04/12 02:17:59;;;;;;;;;;;;;;;20.96;48.21;100636.44;4937056;28;2753;-67
2023/04/12 02:20:26;;;;;;;;;;;;;;;20.95;48.05;100626.34;4955690;28;2875;-67
2023/04/12 02:22:52;;;;;;;;;;;;;;;20.93;48.13;100635.63;4960905;28;2919;-67
2023/04/12 02:25:19;;;;;;;;;;;;;;;20.93;48.08;100630.59;4959551;28;2913;-67
2023/04/12 02:27:45;;;;;;;;;;;;;;;20.92;48.05;100629.16;4945002;28;2771;-67
2023/04/12 02:30:12;;;;;;;;;;;;;;;20.93;48.17;100630.59;4959132;28;2805;-66
2023/04/12 02:32:42;;;;;;;;;;;;;;;20.96;48.17;100628.56;4937367;28;2917;-67
2023/04/12 02:35:16;;;;;;;;;;;;;;;20.96;48.11;100622.06;4954018;28;3055;-67
2023/04/12 02:37:45;;;;;;;;;;;;;;;20.98;48.24;100619.25;4954414;28;2759;-67
2023/04/12 02:40:13;;;;;;;;;;;;;;;20.99;48.03;100615.00;4964020;28;2730;-66
2023/04/12 02:42:39;;;;;;;;;;;;;;;20.99;47.97;100607.09;4963571;28;3169;-67
2023/04/12 02:45:06;;;;;;;;;;;;;;;20.99;47.93;100597.72;4962297;28;2769;-67
2023/04/12 02:47:32;;;;;;;;;;;;;;;20.98;48.04;100596.22;4944810;28;2872;-67
2023/04/12 02:50:01;;;;;;;;;;;;;;;21.02;47.95;100596.41;4962290;28;3095;-67
2023/04/12 02:52:28;;;;;;;;;;;;;;;21.03;47.91;100598.63;4945773;28;2798;-67
2023/04/12 02:55:01;;;;;;;;;;;;;;;21.06;47.97;100590.81;4941048;28;2854;-67
2023/04/12 02:57:28;;;;;;;;;;;;;;;21.04;47.69;100587.84;4940039;28;2800;-67
2023/04/12 02:59:54;;;;;;;;;;;;;;;21.06;48.05;100587.94;4956634;28;2797;-67
2023/04/12 03:02:23;;;;;;;;;;;;;;;21.07;47.98;100586.53;4946702;28;2893;-67
2023/04/12 03:04:55;;;;;;;;;;;;;;;21.10;47.91;100579.47;4960303;28;2850;-67
2023/04/12 03:07:29;;;;;;;;;;;;;;;21.11;47.71;100578.78;4935043;28;2828;-67
2023/04/12 03:09:56;;;;;;;;;;;;;;;21.11;47.74;100580.94;4959077;28;2752;-67
2023/04/12 03:12:24;;;;;;;;;;;;;;;21.12;47.72;100559.38;4947122;28;2757;-67
2023/04/12 03:15:01;;;;;;;;;;;;;;;21.12;47.86;100562.25;4944029;28;2938;-67
2023/04/12 03:17:27;;;;;;;;;;;;;;;21.12;47.71;100565.16;4961398;28;2804;-66
2023/04/12 03:19:56;;;;;;;;;;;;;;;21.11;47.88;100552.88;4945035;28;2904;-67
2023/04/12 03:22:24;;;;;;;;;;;;;;;21.09;47.73;100549.91;4938696;28;3147;-67
2023/04/12 03:24:56;;;;;;;;;;;;;;;21.09;47.93;100549.91;4961307;28;2775;-67
2023/04/12 03:27:22;;;;;;;;;;;;;;;21.09;47.66;100549.91;4941477;28;3187;-67
2023/04/12 03:29:51;;;;;;;;;;;;;;;21.09;47.93;100546.28;4944110;28;2832;-67
2023/04/12 03:32:20;;;;;;;;;;;;;;;21.09;47.83;100543.41;4962318;28;2921;-67
2023/04/12 03:34:46;;;;;;;;;;;;;;;21.10;47.77;100530.53;4938197;28;2894;-67
2023/04/12 03:37:16;;;;;;;;;;;;;;;21.11;47.93;100529.09;4935798;28;2973;-67
2023/04/12 03:39:46;;;;;;;;;;;;;;;21.11;47.65;100523.34;4961737;28;2584;-67
2023/04/12 03:42:17;;;;;;;;;;;;;;;21.12;47.83;100530.59;4962392;28;2848;-67
2023/04/12 03:45:06;;;;;;;;;;;;;;;21.10;47.62;100522.63;4957463;28;2933;-67
2023/04/12 03:47:33;;;;;;;;;;;;;;;21.12;47.68;100524.84;4961052;28;2841;-67
2023/04/12 03:50:09;;;;;;;;;;;;;;;21.10;47.71;100521.88;4945045;28;2807;-67
2023/04/12 03:52:42;;;;;;;;;;;;;;;21.09;47.83;100515.34;4945398;28;2785;-67
2023/04/12 03:55:08;;;;;;;;;;;;;;;21.09;47.89;100511.75;4960211;28;3096;-67
2023/04/12 03:57:36;;;;;;;;;;;;;;;21.09;47.97;100514.63;4959093;28;2877;-67
2023/04/12 04:00:05;;;;;;;;;;;;;;;21.08;47.83;100508.13;4956748;28;3344;-67
2023/04/12 04:02:43;;;;;;;;;;;;;;;21.08;47.63;100501.66;4962478;28;2877;-67
2023/04/12 04:05:11;;;;;;;;;;;;;;;21.09;47.86;100506.00;4945553;28;3167;-67
2023/04/12 04:07:38;;;;;;;;;;;;;;;21.10;47.57;100501.72;4946506;28;2869;-67
2023/04/12 04:10:05;;;;;;;;;;;;;;;21.11;47.70;100506.06;4955840;28;2882;-67
2023/04/12 04:12:34;;;;;;;;;;;;;;;21.11;47.78;100492.41;4942004;28;2848;-67
2023/04/12 04:15:01;;;;;;;;;;;;;;;21.13;47.66;100497.50;4958869;28;2975;-67
2023/04/12 04:17:30;;;;;;;;;;;;;;;21.15;47.70;100505.50;4957011;28;2849;-67
2023/04/12 04:19:56;;;;;;;;;;;;;;;21.15;47.71;100506.22;4959802;28;3094;-67
2023/04/12 04:22:23;;;;;;;;;;;;;;;21.16;47.68;100501.94;4938492;28;2823;-67
2023/04/12 04:24:51;;;;;;;;;;;;;;;21.14;47.63;100498.97;4943694;28;2900;-67
2023/04/12 04:27:19;;;;;;;;;;;;;;;21.15;47.57;100506.22;4961073;28;2799;-67
2023/04/12 04:29:47;;;;;;;;;;;;;;;21.13;47.43;100503.28;4956875;28;3015;-67
2023/04/12 04:32:15;;;;;;;;;;;;;;;21.14;47.70;100498.97;4937480;28;2930;-67
2023/04/12 04:34:43;;;;;;;;;;;;;;;21.13;47.74;100491.75;4947780;28;2745;-67
2023/04/12 04:37:14;;;;;;;;;;;;;;;21.12;47.67;100498.94;4940982;28;2814;-68
2023/04/12 04:39:43;;;;;;;;;;;;;;;21.10;47.54;100484.44;4945980;28;2832;-67
2023/04/12 04:42:10;;;;;;;;;;;;;;;21.10;47.61;100488.06;4941267;28;2564;-67
2023/04/12 04:44:39;;;;;;;;;;;;;;;21.09;47.75;100485.84;4945989;28;2869;-67
2023/04/12 04:47:07;;;;;;;;;;;;;;;21.09;47.58;100491.59;4946453;28;2881;-67
2023/04/12 04:49:37;;;;;;;;;;;;;;;21.09;47.76;100485.84;4959231;28;2888;-67
2023/04/12 04:52:19;;;;;;;;;;;;;;;21.08;47.76;100481.50;4935043;28;2920;-67
2023/04/12 04:54:47;;;;;;;;;;;;;;;21.08;47.67;100472.88;4958078;28;2947;-67
2023/04/12 04:57:13;;;;;;;;;;;;;;;21.08;47.68;100472.88;4958240;28;2893;-67
2023/04/12 04:59:39;;;;;;;;;;;;;;;21.09;47.60;100468.56;4943352;28;2824;-65
2023/04/12 05:02:13;;;;;;;;;;;;;;;20.62;46.76;100472.56;4938000;28;2916;-67
2023/04/12 05:04:39;;;;;;;;;;;;;;;20.80;48.12;100466.75;4956433;28;3499;-70
2023/04/12 05:07:07;;;;;;;;;;;;;;;21.00;47.11;100466.78;4944529;28;3029;-71
2023/04/12 05:09:34;;;;;;;;;;;;;;;20.97;47.03;100462.38;4943382;28;2887;-71
2023/04/12 05:12:01;;;;;;;;;;;;;;;21.01;46.84;100456.75;4965261;28;2260;-71
2023/04/12 05:14:27;;;;;;;;;;;;;;;21.06;47.05;100452.63;4963775;28;2704;-71
2023/04/12 05:17:11;;;;;;;;;;;;;;;21.09;46.94;100451.28;4962652;28;2902;-70
2023/04/12 05:19:38;;;;;;;;;;;;;;;21.10;47.16;100447.03;4946017;28;2826;-70
2023/04/12 05:22:05;;;;;;;;;;;;;;;21.12;47.07;100444.22;4947488;28;2084;-71
2023/04/12 05:24:31;;;;;;;;;;;;;;;21.12;47.19;100438.47;4962266;28;2572;-71
2023/04/12 05:26:58;;;;;;;;;;;;;;;21.11;47.23;100442.72;4946132;28;2966;-71
2023/04/12 05:29:24;;;;;;;;;;;;;;;21.10;47.09;100442.00;4962470;28;2904;-71
2023/04/12 05:31:51;;;;;;;;;;;;;;;21.11;47.11;100434.81;4960372;28;2799;-71
2023/04/12 05:34:20;;;;;;;;;;;;;;;21.10;47.30;100436.25;4945625;28;2860;-70
2023/04/12 05:36:52;;;;;;;;;;;;;;;21.10;47.41;100435.50;4943936;28;2779;-71
2023/04/12 05:39:20;;;;;;;;;;;;;;;21.09;47.15;100434.03;4936096;28;3094;-70
2023/04/12 05:41:48;;;;;;;;;;;;;;;21.07;47.17;100425.31;4962049;28;2906;-70
2023/04/12 05:44:14;;;;;;;;;;;;;;;21.06;47.15;100426.72;4963916;28;2705;-71
2023/04/12 05:46:40;;;;;;;;;;;;;;;21.05;47.31;100416.59;4946736;28;2694;-71
2023/04/12 05:49:07;;;;;;;;;;;;;;;21.06;47.44;100415.22;4965407;28;3047;-71
2023/04/12 05:51:33;;;;;;;;;;;;;;;21.07;47.39;100419.56;4947764;28;2820;-71
2023/04/12 05:54:10;;;;;;;;;;;;;;;21.07;47.33;100402.28;4945683;28;2693;-70
2023/04/12 05:56:37;;;;;;;;;;;;;;;21.08;47.51;100403.75;4963705;28;2843;-71
2023/04/12 05:59:04;;;;;;;;;;;;;;;21.10;47.51;100395.94;4944309;28;2508;-71
2023/04/12 06:01:33;;;;;;;;;;;;;;;21.11;47.14;100393.78;4948258;28;2398;-70
2023/04/12 06:04:04;;;;;;;;;;;;;;;21.12;47.26;100392.41;4945596;28;2824;-71
2023/04/12 06:06:31;;;;;;;;;;;;;;;21.13;47.24;100388.84;4964391;28;3560;-71
2023/04/12 06:08:59;;;;;;;;;;;;;;;21.15;47.24;100378.81;4947417;28;3233;-71
2023/04/12 06:11:27;;;;;;;;;;;;;;;21.16;47.07;100386.03;4945578;28;2959;-71
2023/04/12 06:13:54;;;;;;;;;;;;;;;21.16;47.27;100378.13;4963640;28;2558;-71
2023/04/12 06:16:21;;;;;;;;;;;;;;;21.17;47.31;100370.25;4962903;28;2867;-71
2023/04/12 06:18:48;;;;;;;;;;;;;;;21.16;47.38;100372.38;4946091;28;2970;-71
2023/04/12 06:21:14;;;;;;;;;;;;;;;21.16;47.42;100369.50;4941862;28;2864;-71
2023/04/12 06:23:41;;;;;;;;;;;;;;;21.16;47.12;100363.72;4957997;28;2633;-70
2023/04/12 06:26:07;;;;;;;;;;;;;;;21.16;47.30;100366.63;4954738;28;2614;-70
2023/04/12 06:28:34;;;;;;;;;;;;;;;21.15;47.37;100356.50;4961674;28;2391;-71
2023/04/12 06:31:00;;;;;;;;;;;;;;;21.16;47.42;100357.25;4946390;28;2646;-70
2023/04/12 06:33:31;;;;;;;;;;;;;;;21.14;47.24;100355.03;4943481;28;2840;-70
2023/04/12 06:35:59;;;;;;;;;;;;;;;21.14;47.38;100349.25;4944145;28;2830;-70
2023/04/12 06:38:25;;;;;;;;;;;;;;;21.15;47.21;100344.25;4963204;28;2717;-70
2023/04/12 06:40:52;;;;;;;;;;;;;;;21.17;47.22;100341.47;4963551;28;2869;-71
2023/04/12 06:43:19;;;;;;;;;;;;;;;21.18;47.19;100346.53;4964970;28;2721;-70
2023/04/12 06:45:45;;;;;;;;;;;;;;;21.17;47.44;100336.44;4945492;28;2888;-70
2023/04/12 06:48:11;;;;;;;;;;;;;;;21.17;47.47;100336.44;4964851;28;3296;-70
2023/04/12 06:50:38;;;;;;;;;;;;;;;21.18;47.45;100332.13;4964811;28;2838;-70
2023/04/12 06:53:04;;;;;;;;;;;;;;;21.18;47.22;100331.41;4963367;28;3142;-71
2023/04/12 06:55:30;;;;;;;;;;;;;;;21.16;47.30;100329.19;4962974;28;3380;-70
2023/04/12 06:57:57;;;;;;;;;;;;;;;21.16;47.43;100325.56;4964698;28;2885;-71
2023/04/12 07:00:23;;;;;;;;;;;;;;;21.18;47.21;100326.38;4964830;28;2858;-70
2023/04/12 07:02:50;;;;;;;;;;;;;;;21.15;47.26;100330.59;4959691;28;2821;-70
2023/04/12 07:05:16;;;;;;;;;;;;;;;21.15;47.33;100313.31;4962782;28;2816;-70
2023/04/12 07:07:43;;;;;;;;;;;;;;;21.16;47.23;100323.44;4965085;28;2728;-71
2023/04/12 07:10:09;;;;;;;;;;;;;;;21.16;47.39;100311.19;4964736;28;2896;-70
2023/04/12 07:12:36;;;;;;;;;;;;;;;21.16;47.34;100317.66;4963988;28;2722;-71
2023/04/12 07:15:02;;;;;;;;;;;;;;;21.16;47.24;100311.19;4961183;28;3021;-70
2023/04/12 07:17:28;;;;;;;;;;;;;;;21.16;47.41;100306.16;4964760;28;2718;-71
2023/04/12 07:19:55;;;;;;;;;;;;;;;21.18;47.20;100303.34;4964545;28;2845;-70
2023/04/12 07:22:21;;;;;;;;;;;;;;;21.18;47.09;100297.59;4967234;28;2534;-71
2023/04/12 07:24:49;;;;;;;;;;;;;;;21.19;47.15;100293.31;4963288;28;2890;-71
2023/04/12 07:27:15;;;;;;;;;;;;;;;21.20;47.38;100288.28;4960144;28;2753;-70
2023/04/12 07:29:41;;;;;;;;;;;;;;;21.20;47.12;100288.28;4969009;28;2465;-71
2023/04/12 07:32:08;;;;;;;;;;;;;;;21.18;47.32;100280.31;4964716;28;2845;-71
2023/04/12 07:34:35;;;;;;;;;;;;;;;21.18;47.26;100280.31;4964442;28;3175;-70
2023/04/12 07:37:02;;;;;;;;;;;;;;;21.19;47.11;100276.03;4965721;28;2880;-71
2023/04/12 07:39:28;;;;;;;;;;;;;;;21.19;47.12;100281.03;4966925;28;3140;-71
2023/04/12 07:41:55;;;;;;;;;;;;;;;21.19;47.28;100270.28;4966908;28;2955;-70
2023/04/12 07:44:21;;;;;;;;;;;;;;;21.17;47.41;100261.56;4965157;28;2848;-70
2023/04/12 07:46:47;;;;;;;;;;;;;;;21.17;47.31;100261.56;4965671;28;1733;-70
2023/04/12 07:49:14;;;;;;;;;;;;;;;21.17;47.39;100249.34;4964748;28;2844;-70
2023/04/12 07:51:41;;;;;;;;;;;;;;;21.17;47.39;100261.56;4964007;28;2843;-71
2023/04/12 07:54:08;;;;;;;;;;;;;;;21.16;47.40;100253.59;4960887;28;2851;-70
2023/04/12 07:56:34;;;;;;;;;;;;;;;21.16;46.88;100248.56;4963399;28;2833;-71
2023/04/12 07:59:01;;;;;;;;;;;;;;;21.16;46.66;100248.56;4963373;28;2695;-72
2023/04/12 08:01:27;;;;;;;;;;;;;;;21.16;46.19;100247.84;4962447;28;3146;-71
2023/04/12 08:03:53;;;;;;;;;;;;;;;21.15;46.27;100229.09;4967147;28;2721;-71
2023/04/12 08:06:20;;;;;;;;;;;;;;;21.13;45.99;100233.38;4965857;28;2820;-71
2023/04/12 08:08:46;;;;;;;;;;;;;;;21.13;45.69;100226.88;4960393;28;2658;-71
2023/04/12 08:11:13;;;;;;;;;;;;;;;21.11;45.20;100221.06;4967867;28;2828;-71
2023/04/12 08:13:39;;;;;;;;;;;;;;;21.09;45.33;100215.22;4965778;28;2903;-71
2023/04/12 08:16:07;;;;;;;;;;;;;;;21.07;44.87;100215.16;4967444;28;2798;-70
2023/04/12 08:18:33;;;;;;;;;;;;;;;21.04;45.00;100223.00;4966868;28;2744;-71
2023/04/12 08:21:00;;;;;;;;;;;;;;;21.02;43.91;100216.44;4965607;28;2848;-71
2023/04/12 08:23:26;;;;;;;;;;;;;;;21.03;43.77;100200.66;4965220;28;2849;-71
2023/04/12 08:26:02;;;;;;;;;;;;;;;21.01;43.29;100206.34;4964104;28;2942;-71
2023/04/12 08:28:28;;;;;;;;;;;;;;;21.01;42.35;100200.59;4964010;28;3887;-71
2023/04/12 08:30:55;;;;;;;;;;;;;;;20.99;41.69;100189.00;4965672;28;2947;-71
2023/04/12 08:33:21;;;;;;;;;;;;;;;20.96;41.92;100190.31;4961631;28;2822;-71
2023/04/12 08:35:48;;;;;;;;;;;;;;;20.97;42.37;100191.81;4963826;28;2674;-71
2023/04/12 08:38:15;;;;;;;;;;;;;;;20.99;42.49;100186.13;4963099;28;2892;-71
2023/04/12 08:40:41;;;;;;;;;;;;;;;21.02;43.04;100187.66;4963680;28;2884;-71
2023/04/12 08:43:08;;;;;;;;;;;;;;;21.02;43.56;100187.66;4963685;28;2521;-70
2023/04/12 08:45:35;;;;;;;;;;;;;;;20.07;38.62;100183.66;4964379;28;2598;-70
2023/04/12 08:48:02;;;;;;;;;;;;;;;19.83;37.68;100180.59;4965764;28;2848;-69
2023/04/12 08:50:29;;;;;;;;;;;;;;;20.18;38.07;100194.13;4944894;28;2817;-69
2023/04/12 08:52:55;;;;;;;;;;;;;;;20.40;37.83;100182.66;4947791;28;2840;-69
2023/04/12 08:55:21;;;;;;;;;;;;;;;20.56;37.69;100184.66;4963977;28;3173;-69
2023/04/12 08:57:48;;;;;;;;;;;;;;;20.58;37.81;100176.84;4967307;28;1681;-69
2023/04/12 09:00:14;;;;;;;;;;;;;;;20.65;38.40;100172.03;4961855;28;2690;-67
2023/04/12 09:02:45;;;;;;;;;;;;;;;20.71;38.00;100166.50;4960426;28;2825;-67
2023/04/12 09:05:13;;;;;;;;;;;;;;;20.72;38.26;100156.47;4966583;28;2789;-67
2023/04/12 09:07:40;;;;;;;;;;;;;;;20.75;39.35;100154.38;4964574;28;2352;-66
2023/04/12 09:10:06;;;;;;;;;;;;;;;20.73;39.57;100145.69;4964784;28;2923;-66
2023/04/12 09:12:33;;;;;;;;;;;;;;;20.54;39.85;100152.94;4961006;28;3099;-67
2023/04/12 09:15:09;;;;;;;;;;;;;;;20.40;38.10;100151.03;4963386;28;2930;-67
2023/04/12 09:17:35;;;;;;;;;;;;;;;20.57;39.06;100140.13;4961044;28;2718;-67
2023/04/12 09:20:05;;;;;;;;;;;;;;;20.71;38.34;100134.88;4962790;28;2920;-66
2023/04/12 09:22:31;;;;;;;;;;;;;;;20.77;38.64;100129.28;4962769;28;2768;-68
2023/04/12 09:24:58;;;;;;;;;;;;;;;20.79;39.13;100123.59;4961607;28;2877;-67
2023/04/12 09:27:27;;;;;;;;;;;;;;;20.83;39.21;100123.75;4963283;28;2756;-67
2023/04/12 09:30:06;;;;;;;;;;;;;;;20.73;39.82;100117.66;4963836;28;2867;-66
2023/04/12 09:32:32;;;;;;;;;;;;;;;20.73;39.81;100111.91;4964003;28;2882;-67
2023/04/12 09:35:00;;;;;;;;;;;;;;;20.79;40.13;100103.47;4965559;28;1870;-68
2023/04/12 09:37:26;;;;;;;;;;;;;;;20.82;40.30;100093.50;4959230;28;2892;-66
2023/04/12 09:40:00;;;;;;;;;;;;;;;20.82;40.33;100093.50;4962096;28;2570;-67
2023/04/12 09:42:27;;;;;;;;;;;;;;;20.84;39.61;100082.03;4962072;28;1805;-67
2023/04/12 09:45:00;;;;;;;;;;;;;;;20.87;40.26;100074.97;4966207;28;1577;-68
2023/04/12 09:47:37;;;;;;;;;;;;;;;20.90;40.50;100075.75;4966566;28;2559;-67
2023/04/12 09:50:08;;;;;;;;;;;;;;;20.92;41.00;100076.56;4965552;28;1848;-67
2023/04/12 09:52:36;;;;;;;;;;;;;;;20.91;40.73;100069.34;4964528;28;1807;-67
2023/04/12 09:55:02;;;;;;;;;;;;;;;20.91;40.99;100066.47;4966065;28;1850;-67
2023/04/12 09:57:29;;;;;;;;;;;;;;;20.93;41.06;100054.25;4940165;28;2629;-66
2023/04/12 09:59:55;;;;;;;;;;;;;;;20.92;41.39;100056.41;4962936;28;1978;-66
2023/04/12 10:02:23;;;;;;;;;;;;;;;20.97;41.29;100048.63;4962487;28;2726;-66
2023/04/12 10:04:50;;;;;;;;;;;;;;;20.97;41.42;100036.41;4963151;28;2166;-66
2023/04/12 10:07:16;;;;;;;;;;;;;;;20.96;41.76;100023.41;4958372;28;2925;-67
2023/04/12 10:09:43;;;;;;;;;;;;;;;20.90;41.60;100032.59;4961385;28;2893;-66
2023/04/12 10:12:10;;;;;;;;;;;;;;;20.93;42.18;100026.22;4962952;28;2717;-66
2023/04/12 10:14:36;;;;;;;;;;;;;;;20.91;42.30;100011.03;4960687;28;2804;-66
2023/04/12 10:17:03;;;;;;;;;;;;;;;20.87;42.34;100011.66;4963081;28;2852;-67
2023/04/12 10:19:30;;;;;;;;;;;;;;;20.89;41.63;100014.59;4962914;28;1978;-68
2023/04/12 10:21:57;;;;;;;;;;;;;;;20.90;41.68;100004.56;4963150;28;2927;-66
2023/04/12 10:24:23;;;;;;;;;;;;;;;20.87;40.73;100005.91;4962159;28;2844;-66
2023/04/12 10:26:50;;;;;;;;;;;;;;;20.84;41.54;99995.72;4962054;28;2702;-67
2023/04/12 10:29:26;;;;;;;;;;;;;;;20.89;41.91;99985.81;4962666;28;3036;-67
2023/04/12 10:31:56;;;;;;;;;;;;;;;20.79;41.57;99981.91;4964881;28;2807;-66
2023/04/12 10:34:23;;;;;;;;;;;;;;;20.55;40.74;99984.72;4962942;28;2777;-66
2023/04/12 10:36:53;;;;;;;;;;;;;;;20.46;38.90;99978.72;4961963;28;2769;-66
2023/04/12 10:39:33;;;;;;;;;;;;;;;20.44;38.06;99967.16;4960073;28;1907;-63
2023/04/12 10:42:16;;;;;;;;;;;;;;;20.29;36.82;99962.34;4962349;28;2748;-65
2023/04/12 10:44:43;;;;;;;;;;;;;;;20.48;35.95;99963.69;4961192;28;2836;-66
2023/04/12 10:47:10;;;;;;;;;;;;;;;20.63;36.87;99954.09;4962364;28;3226;-65
2023/04/12 10:49:37;;;;;;;;;;;;;;;20.57;36.80;99956.81;4960152;28;2836;-65
2023/04/12 10:52:09;;;;;;;;;;;;;;;20.46;35.94;99946.34;4960639;28;2911;-64
2023/04/12 10:54:36;;;;;;;;;;;;;;;20.38;35.35;99943.94;4962384;28;2825;-64
2023/04/12 10:57:04;;;;;;;;;;;;;;;20.42;34.75;99946.22;4943618;28;2853;-64
2023/04/12 10:59:56;;;;;;;;;;;;;;;20.31;34.27;99936.53;4950468;28;2768;-65
2023/04/12 11:02:22;;;;;;;;;;;;;;;20.38;33.93;99918.06;4962353;28;2722;-65
2023/04/12 11:05:07;;;;;;;;;;;;;;;20.37;33.63;99916.59;4949947;28;2535;-65
2023/04/12 11:07:53;;;;;;;;;;;;;;;20.42;33.46;99917.47;4963273;28;2519;-66
2023/04/12 11:10:38;;;;;;;;;;;;;;;20.45;33.36;99907.50;4965225;28;2880;-65
2023/04/12 11:13:07;;;;;;;;;;;;;;;20.39;33.77;99905.16;4948879;28;2930;-65
2023/04/12 11:15:34;;;;;;;;;;;;;;;20.33;33.40;99898.50;4966078;28;2747;-66
2023/04/12 11:18:00;;;;;;;;;;;;;;;20.35;33.26;99889.94;4947583;28;2907;-65
2023/04/12 11:20:27;;;;;;;;;;;;;;;20.25;33.38;99896.84;4962678;28;2825;-65
2023/04/12 11:22:53;;;;;;;;;;;;;;;20.29;32.67;99890.47;4963536;28;2989;-66
2023/04/12 11:25:22;;;;;;;;;;;;;;;20.33;32.57;99887.72;4935475;28;2614;-66
2023/04/12 11:27:50;;;;;;;;;;;;;;;20.29;32.56;99887.59;4943129;28;2949;-66
2023/04/12 11:30:16;;;;;;;;;;;;;;;20.38;32.74;99886.44;4964744;28;2831;-66
2023/04/12 11:32:43;;;;;;;;;;;;;;;20.50;34.41;99875.31;4965402;28;2898;-67
2023/04/12 11:35:10;;;;;;;;;;;;;;;20.64;34.38;99857.78;4963312;28;2813;-67
2023/04/12 11:37:36;;;;;;;;;;;;;;;20.78;34.39;99866.09;4950061;28;2841;-67
2023/04/12 11:40:06;;;;;;;;;;;;;;;20.81;34.90;99867.59;4963768;28;2836;-65
2023/04/12 11:42:32;;;;;;;;;;;;;;;20.84;35.17;99866.25;4959673;28;2807;-66
2023/04/12 11:44:58;;;;;;;;;;;;;;;20.88;35.49;99862.75;4964901;28;2690;-66
2023/04/12 11:47:34;;;;;;;;;;;;;;;20.88;35.80;99849.09;4959973;28;2857;-67
2023/04/12 11:50:01;;;;;;;;;;;;;;;20.91;35.78;99844.88;4966565;28;2935;-65
2023/04/12 11:52:28;;;;;;;;;;;;;;;20.90;36.41;99831.91;4964405;28;2881;-66
2023/04/12 11:54:57;;;;;;;;;;;;;;;20.89;36.54;99818.94;4964427;28;3159;-65
2023/04/12 11:57:24;;;;;;;;;;;;;;;20.87;36.54;99816.00;4963619;28;2673;-66
2023/04/12 11:59:51;;;;;;;;;;;;;;;20.82;37.25;99807.91;4961977;28;2788;-66
2023/04/12 12:02:17;;;;;;;;;;;;;;;20.90;37.24;99791.59;4958297;28;2828;-66
2023/04/12 12:04:49;;;;;;;;;;;;;;;20.89;37.48;99807.41;4961192;28;2592;-66
2023/04/12 12:07:16;;;;;;;;;;;;;;;20.95;37.54;99812.59;4960042;28;2816;-67
2023/04/12 12:09:43;;;;;;;;;;;;;;;20.85;37.66;99804.41;4962115;28;2725;-67
2023/04/12 12:12:10;;;;;;;;;;;;;;;20.90;37.48;99782.97;4961005;28;2889;-67
2023/04/12 12:14:36;;;;;;;;;;;;;;;20.90;38.02;99794.47;4962929;28;2547;-70
2023/04/12 12:17:08;;;;;;;;;;;;;;;20.90;38.24;99782.25;4960365;28;2671;-72
2023/04/12 12:19:35;;;;;;;;;;;;;;;20.94;38.51;99773.72;4963435;28;2498;-71
2023/04/12 12:22:06;;;;;;;;;;;;;;;20.99;38.53;99774.56;4966675;28;2276;-71
2023/04/12 12:24:32;;;;;;;;;;;;;;;21.05;38.86;99760.31;4963452;28;2310;-69
2023/04/12 12:27:02;;;;;;;;;;;;;;;21.03;39.34;99758.16;4967552;28;1701;-67
2023/04/12 12:29:35;;;;;;;;;;;;;;;21.01;39.61;99766.00;4964180;28;2570;-68
2023/04/12 12:32:03;;;;;;;;;;;;;;;21.03;39.67;99761.03;4956691;28;2542;-68
2023/04/12 12:34:33;;;;;;;;;;;;;;;21.03;39.70;99758.16;4963493;28;2844;-69
2023/04/12 12:36:59;;;;;;;;;;;;;;;21.02;39.77;99747.31;4963809;28;2802;-69
2023/04/12 12:39:26;;;;;;;;;;;;;;;21.04;39.78;99756.72;4964346;28;2217;-69
2023/04/12 12:41:53;;;;;;;;;;;;;;;21.03;39.86;99745.91;4966162;28;2996;-69
2023/04/12 12:44:20;;;;;;;;;;;;;;;21.02;40.02;99750.19;4967733;28;2571;-69
2023/04/12 12:46:46;;;;;;;;;;;;;;;21.04;40.13;99742.31;4963560;28;2744;-68
2023/04/12 12:49:25;;;;;;;;;;;;;;;20.98;40.41;99732.81;4963799;28;2817;-68
2023/04/12 12:51:52;;;;;;;;;;;;;;;21.05;40.05;99731.53;4964277;28;2771;-69
2023/04/12 12:54:18;;;;;;;;;;;;;;;21.29;40.16;99720.66;4966731;28;2938;-72
2023/04/12 12:57:04;;;;;;;;;;;;;;;21.41;40.36;99714.47;4966062;28;2729;-73
2023/04/12 12:59:31;;;;;;;;;;;;;;;21.50;40.21;99721.16;4962731;28;2772;-73
2023/04/12 13:01:57;;;;;;;;;;;;;;;21.56;40.25;99712.66;4966743;28;1866;-74
2023/04/12 13:04:24;;;;;;;;;;;;;;;21.59;40.75;99710.56;4966174;28;2821;-74
2023/04/12 13:06:50;;;;;;;;;;;;;;;21.60;40.56;99707.00;4964473;28;2880;-74